Overview Statistics Trail Chart Weather Telemetry Raw packets
 

This is the latest recevied weather packets stored in our database for station/object OK2JV-13. If no packets are shown the sender has not sent any weather packets the latest 10 day(s).

<< 13 14 15 16 17 18 19 >>
Time Temp. Humidity Pressure Rain* Wind** Luminosity Snow
1788456094 18.89° C 50% 1016.2 hPa - - - -
1788455492 18.89° C 50% 1016.3 hPa - - - -
1788454885 18.89° C 50% 1016.4 hPa - - - -
1788454281 18.89° C 50% 1016.2 hPa - - - -
1788453677 19.44° C 50% 1016.2 hPa - - - -
1788453073 19.44° C 50% 1016.4 hPa - - - -
1788452469 19.44° C 50% 1016.4 hPa - - - -
1788451865 19.44° C 50% 1016.6 hPa - - - -
1788451262 19.44° C 49% 1016.4 hPa - - - -
1788261097 20.56° C 51% 1018.1 hPa - - - -
1788260493 20.56° C 51% 1018.2 hPa - - - -
1788259889 20° C 53% 1018 hPa - - - -
1788259287 19.44° C 55% 1018.1 hPa - - - -
1788258682 18.33° C 55% 1018 hPa - - - -
1788258078 18.33° C 56% 1017.8 hPa - - - -
1788257474 17.78° C 56% 1017.9 hPa - - - -
1788256871 17.78° C 55% 1018 hPa - - - -
1788256266 17.78° C 56% 1017.9 hPa - - - -
1788255662 18.33° C 55% 1017.8 hPa - - - -
1788255058 17.78° C 58% 1017.8 hPa - - - -
1788254454 17.22° C 62% 1017.9 hPa - - - -
1788253850 17.22° C 62% 1017.7 hPa - - - -
1788253245 17.22° C 63% 1017.8 hPa - - - -
1788252642 17.22° C 62% 1017.8 hPa - - - -
1788252038 17.22° C 64% 1017.6 hPa - - - -

* Rain since midnight (hover to see other rain measurements)
** Current wind speed in m/s (hover to see current wind gust speed)